Terminal Aerodrome Forecast
Issued by NWS

Home | Current Version | Previous Version | Text Only | Print | Product List | Glossary On
Versions: 1 2 3 4 5 6 7 8 9 10 11 12 13 14 15 16 17 18 19 20 21 22 23 24 25 26 27 28 29
000
FTUS41 KRNK 021302 AAA
TAFBCB
TAF AMD
KBCB 021302Z 0213/0312 00000KT P6SM SCT040 BKN080
     FM022000 28006KT P6SM VCTS BKN050CB
     FM030100 00000KT P6SM BKN120
     FM030900 00000KT 1/2SM FG BKN002=

USA.gov is the U.S. government's official web portal to all federal, state and local government web resources and services.